Time;durP1;ratioP1;P1;durP2;ratioP2;P2;SDS_P1;SDS_P2;PMS_P1;PMS_P2;Temp;Humidity;BMP_temperature;BMP_pressure;BME280_temperature;BME280_humidity;BME280_pressure;Samples;Min_cycle;Max_cycle;Signal;HPM_P1;HPM_P2
2023/09/20 00:01:13;;;;;;;;;;;;;;;;;;5111665;28;19947;-73
2023/09/20 00:06:26;;;;;;;;;;;;;;;;;;5111643;27;19922;-73
2023/09/20 00:08:52;;;;;;;;;;;;;;;;;;5111833;28;20007;-73
2023/09/20 00:12:37;;;;;;;;;;;;;;;;;;5091631;27;19922;-74
2023/09/20 00:15:03;;;;;;;;;;;;;;;;;;5091376;28;20003;-74
2023/09/20 00:21:08;;;;;;;;;;;;;;;;;;5111424;27;19938;-73
2023/09/20 00:24:13;;;;;;;;;;;;;;;;;;5111930;27;19916;-73
2023/09/20 00:28:48;;;;;;;;;;;;;;;;;;5112244;27;20298;-73
2023/09/20 00:31:15;;;;;;;;;;;;;;;;;;5111682;28;19912;-74
2023/09/20 00:33:41;;;;;;;;;;;;;;;;;;5111285;28;20384;-74
2023/09/20 00:37:49;;;;;;;;;;;;;;;;;;5112309;27;19922;-74
2023/09/20 00:40:21;;;;;;;;;;;;;;;;;;5111237;28;20342;-74
2023/09/20 00:43:43;;;;;;;;;;;;;;;;;;5112228;27;19916;-73
2023/09/20 00:47:40;;;;;;;;;;;;;;;;;;5111610;27;19922;-74
2023/09/20 00:53:39;;;;;;;;;;;;;;;;;;5091674;27;19938;-73
2023/09/20 00:56:55;;;;;;;;;;;;;;;;;;5132239;27;20076;-73
2023/09/20 00:59:21;;;;;;;;;;;;;;;;;;5132271;28;20009;-74
2023/09/20 01:04:57;;;;;;;;;;;;;;;;;;5112270;27;19923;-74
2023/09/20 01:07:23;;;;;;;;;;;;;;;;;;5111776;28;20342;-73
2023/09/20 01:10:39;;;;;;;;;;;;;;;;;;5091874;27;19916;-73
2023/09/20 01:15:13;;;;;;;;;;;;;;;;;;5111480;27;19923;-74
2023/09/20 01:17:39;;;;;;;;;;;;;;;;;;5111774;28;20003;-74
2023/09/20 01:20:14;;;;;;;;;;;;;;;;;;5112043;28;19908;-74
2023/09/20 01:22:40;;;;;;;;;;;;;;;;;;5111442;28;19908;-74
2023/09/20 01:26:23;;;;;;;;;;;;;;;;;;5112109;27;19916;-74
2023/09/20 01:28:49;;;;;;;;;;;;;;;;;;5111690;28;20010;-74
2023/09/20 01:31:15;;;;;;;;;;;;;;;;;;5111261;28;19953;-74
2023/09/20 01:33:41;;;;;;;;;;;;;;;;;;5111918;28;19908;-74
2023/09/20 01:36:07;;;;;;;;;;;;;;;;;;5111618;28;19908;-74
2023/09/20 01:38:33;;;;;;;;;;;;;;;;;;5111143;28;19919;-74
2023/09/20 01:40:59;;;;;;;;;;;;;;;;;;5111714;28;19923;-74
2023/09/20 01:45:53;;;;;;;;;;;;;;;;;;5174364;27;20335;-74
2023/09/20 01:50:01;;;;;;;;;;;;;;;;;;5112277;27;19916;-74
2023/09/20 01:52:38;;;;;;;;;;;;;;;;;;5111343;27;20277;-75
2023/09/20 01:55:04;;;;;;;;;;;;;;;;;;5110479;28;20288;-74
2023/09/20 01:57:30;;;;;;;;;;;;;;;;;;5111378;28;19908;-74
2023/09/20 02:03:27;;;;;;;;;;;;;;;;;;5111760;27;20010;-75
2023/09/20 02:05:53;;;;;;;;;;;;;;;;;;5111484;28;19912;-75
2023/09/20 02:10:09;;;;;;;;;;;;;;;;;;5092194;27;19912;-75
2023/09/20 02:12:35;;;;;;;;;;;;;;;;;;5090952;28;20392;-75
2023/09/20 02:17:38;;;;;;;;;;;;;;;;;;5091742;27;20394;-74
2023/09/20 02:20:08;;;;;;;;;;;;;;;;;;5090964;28;19912;-73
2023/09/20 02:23:26;;;;;;;;;;;;;;;;;;5112244;27;19916;-73
2023/09/20 02:25:54;;;;;;;;;;;;;;;;;;5111299;28;20330;-74
2023/09/20 02:33:18;;;;;;;;;;;;;;;;;;5091125;27;20291;-74
2023/09/20 02:35:45;;;;;;;;;;;;;;;;;;5091319;28;20037;-74
2023/09/20 02:38:11;;;;;;;;;;;;;;;;;;5089952;28;19908;-74
2023/09/20 02:40:36;;;;;;;;;;;;;;;;;;5091002;28;19915;-74
2023/09/20 02:43:10;;;;;;;;;;;;;;;;;;5091219;28;19912;-73
2023/09/20 02:45:39;;;;;;;;;;;;;;;;;;5089888;28;19957;-73
2023/09/20 02:48:06;;;;;;;;;;;;;;;;;;5090753;28;19922;-74
2023/09/20 02:52:05;;;;;;;;;;;;;;;;;;5111745;27;19916;-73
2023/09/20 02:56:04;;;;;;;;;;;;;;;;;;5091526;28;19916;-73
2023/09/20 03:02:57;;;;;;;;;;;;;;;;;;5111676;27;19916;-74
2023/09/20 03:06:30;;;;;;;;;;;;;;;;;;5111808;27;19916;-73
2023/09/20 03:08:56;;;;;;;;;;;;;;;;;;5111331;28;20350;-73
2023/09/20 03:15:05;;;;;;;;;;;;;;;;;;5111679;27;19931;-74
2023/09/20 03:18:02;;;;;;;;;;;;;;;;;;5112073;27;20291;-73
2023/09/20 03:22:44;;;;;;;;;;;;;;;;;;5152580;27;19983;-73
2023/09/20 03:25:11;;;;;;;;;;;;;;;;;;5152891;27;20336;-74
2023/09/20 03:27:40;;;;;;;;;;;;;;;;;;5152770;27;19935;-74
2023/09/20 03:30:06;;;;;;;;;;;;;;;;;;5152432;27;20354;-74
2023/09/20 03:32:33;;;;;;;;;;;;;;;;;;5153019;27;19915;-74
2023/09/20 03:34:59;;;;;;;;;;;;;;;;;;5152953;27;20374;-74
2023/09/20 03:38:49;;;;;;;;;;;;;;;;;;5112094;27;19912;-73
2023/09/20 03:41:38;;;;;;;;;;;;;;;;;;5091909;27;19917;-74
2023/09/20 03:46:24;;;;;;;;;;;;;;;;;;5112148;27;19912;-74
2023/09/20 03:51:50;;;;;;;;;;;;;;;;;;5091060;27;19916;-73
2023/09/20 03:57:26;;;;;;;;;;;;;;;;;;5111538;27;19918;-74
2023/09/20 04:01:03;;;;;;;;;;;;;;;;;;5107639;27;19916;-74
2023/09/20 04:16:12;;;;;;;;;;;;;;;;;;5112629;27;19922;-74
2023/09/20 04:18:38;;;;;;;;;;;;;;;;;;5107563;28;20002;-73
2023/09/20 04:21:04;;;;;;;;;;;;;;;;;;5107771;28;19908;-73
2023/09/20 04:23:32;;;;;;;;;;;;;;;;;;5110940;28;19908;-74
2023/09/20 04:25:58;;;;;;;;;;;;;;;;;;5110282;28;19908;-74
2023/09/20 04:30:41;;;;;;;;;;;;;;;;;;5107605;27;20287;-73
2023/09/20 04:35:37;;;;;;;;;;;;;;;;;;5110388;27;19912;-73
2023/09/20 04:38:03;;;;;;;;;;;;;;;;;;5110148;28;19947;-73
2023/09/20 04:40:28;;;;;;;;;;;;;;;;;;5109183;28;19947;-73
2023/09/20 04:44:24;;;;;;;;;;;;;;;;;;5069002;28;19923;-73
2023/09/20 04:46:50;;;;;;;;;;;;;;;;;;5068828;28;19913;-74
2023/09/20 04:49:19;;;;;;;;;;;;;;;;;;5069064;28;19916;-73
2023/09/20 04:51:45;;;;;;;;;;;;;;;;;;5069307;28;20412;-73
2023/09/20 04:54:12;;;;;;;;;;;;;;;;;;5068591;28;19948;-73
2023/09/20 04:56:40;;;;;;;;;;;;;;;;;;5065299;28;19919;-73
2023/09/20 04:59:08;;;;;;;;;;;;;;;;;;5066535;28;19999;-73
2023/09/20 05:01:34;;;;;;;;;;;;;;;;;;5066134;28;19916;-73
2023/09/20 05:04:00;;;;;;;;;;;;;;;;;;5067416;28;19967;-73
2023/09/20 05:08:39;;;;;;;;;;;;;;;;;;5152044;27;20010;-73
2023/09/20 05:11:05;;;;;;;;;;;;;;;;;;5133038;27;19911;-74
2023/09/20 05:14:25;;;;;;;;;;;;;;;;;;5110740;27;19922;-73
2023/09/20 05:16:51;;;;;;;;;;;;;;;;;;5110163;28;19912;-74
2023/09/20 05:20:37;;;;;;;;;;;;;;;;;;5101847;27;20299;-72
2023/09/20 05:23:05;;;;;;;;;;;;;;;;;;5107669;28;20448;-70
2023/09/20 05:25:31;;;;;;;;;;;;;;;;;;5094813;28;19916;-73
2023/09/20 05:27:57;;;;;;;;;;;;;;;;;;5106994;28;20004;-73
2023/09/20 05:30:25;;;;;;;;;;;;;;;;;;5105025;28;20011;-76
2023/09/20 05:35:59;;;;;;;;;;;;;;;;;;5114307;27;19916;-72
2023/09/20 05:38:25;;;;;;;;;;;;;;;;;;5107109;28;19982;-76
2023/09/20 05:40:51;;;;;;;;;;;;;;;;;;5094775;28;19924;-77
2023/09/20 05:43:17;;;;;;;;;;;;;;;;;;5105940;28;19947;-78
2023/09/20 05:48:39;;;;;;;;;;;;;;;;;;5108460;27;20459;-75
2023/09/20 05:51:05;;;;;;;;;;;;;;;;;;5105948;28;19912;-75
2023/09/20 05:53:31;;;;;;;;;;;;;;;;;;5093906;28;20020;-75
2023/09/20 05:55:56;;;;;;;;;;;;;;;;;;5088823;28;19979;-75
2023/09/20 05:58:22;;;;;;;;;;;;;;;;;;5090498;28;19914;-76
2023/09/20 06:01:40;;;;;;;;;;;;;;;;;;5070605;27;19916;-71
2023/09/20 06:04:06;;;;;;;;;;;;;;;;;;5080339;28;19916;-72
2023/09/20 06:10:07;;;;;;;;;;;;;;;;;;5101107;27;19916;-72
2023/09/20 06:12:33;;;;;;;;;;;;;;;;;;5108484;28;19912;-74
2023/09/20 06:14:59;;;;;;;;;;;;;;;;;;5108926;28;19965;-72
2023/09/20 06:18:26;;;;;;;;;;;;;;;;;;5124518;27;19922;-74
2023/09/20 06:24:34;;;;;;;;;;;;;;;;;;4918269;27;5505439;-75
2023/09/20 06:27:00;;;;;;;;;;;;;;;;;;5111551;28;19955;-75
2023/09/20 06:29:27;;;;;;;;;;;;;;;;;;5130105;28;19944;-74
2023/09/20 06:31:52;;;;;;;;;;;;;;;;;;5128561;28;19911;-74
2023/09/20 06:34:18;;;;;;;;;;;;;;;;;;5116297;28;19923;-75
2023/09/20 06:37:40;;;;;;;;;;;;;;;;;;5145972;27;19923;-74
2023/09/20 06:40:15;;;;;;;;;;;;;;;;;;5117007;28;19912;-70
2023/09/20 06:43:00;;;;;;;;;;;;;;;;;;5101582;27;20413;-74
2023/09/20 06:46:50;;;;;;;;;;;;;;;;;;5087477;27;20295;-72
2023/09/20 06:51:21;;;;;;;;;;;;;;;;;;4849097;27;7300264;-76
2023/09/20 06:53:48;;;;;;;;;;;;;;;;;;5089165;28;19954;-77
2023/09/20 06:56:14;;;;;;;;;;;;;;;;;;5088669;28;19908;-78
2023/09/20 06:58:40;;;;;;;;;;;;;;;;;;5075892;28;20000;-75
2023/09/20 07:03:36;;;;;;;;;;;;;;;;;;5082306;27;20274;-76
2023/09/20 07:06:05;;;;;;;;;;;;;;;;;;5077830;28;19919;-74
2023/09/20 07:10:09;;;;;;;;;;;;;;;;;;5065390;28;19927;-72
2023/09/20 07:12:38;;;;;;;;;;;;;;;;;;5060184;28;19916;-75
2023/09/20 07:15:06;;;;;;;;;;;;;;;;;;5065541;28;19919;-76
2023/09/20 07:17:32;;;;;;;;;;;;;;;;;;5062713;28;19916;-76
2023/09/20 07:19:58;;;;;;;;;;;;;;;;;;5064289;28;20425;-74
2023/09/20 07:22:25;;;;;;;;;;;;;;;;;;5061210;28;20387;-74
2023/09/20 07:28:36;;;;;;;;;;;;;;;;;;5152192;27;19918;-76
2023/09/20 07:31:03;;;;;;;;;;;;;;;;;;5129713;27;20290;-75
2023/09/20 07:34:59;;;;;;;;;;;;;;;;;;5088090;27;19923;-74
2023/09/20 07:37:25;;;;;;;;;;;;;;;;;;5075133;28;19913;-74
2023/09/20 07:39:51;;;;;;;;;;;;;;;;;;5068720;28;20004;-74
2023/09/20 07:42:17;;;;;;;;;;;;;;;;;;5074628;28;20027;-75
2023/09/20 07:44:43;;;;;;;;;;;;;;;;;;5067912;28;19909;-74
2023/09/20 07:47:11;;;;;;;;;;;;;;;;;;5066808;28;19916;-78
2023/09/20 07:49:39;;;;;;;;;;;;;;;;;;5067921;28;19909;-75
2023/09/20 07:52:06;;;;;;;;;;;;;;;;;;5068133;28;20007;-74
2023/09/20 07:54:32;;;;;;;;;;;;;;;;;;5066830;28;19927;-73
2023/09/20 07:56:58;;;;;;;;;;;;;;;;;;5065847;28;20003;-75
2023/09/20 07:59:26;;;;;;;;;;;;;;;;;;5068299;28;19912;-75
2023/09/20 08:01:52;;;;;;;;;;;;;;;;;;5067013;28;20382;-75
2023/09/20 08:04:18;;;;;;;;;;;;;;;;;;5067242;28;19908;-77
2023/09/20 08:06:44;;;;;;;;;;;;;;;;;;5065215;28;19913;-74
2023/09/20 08:09:11;;;;;;;;;;;;;;;;;;5059214;28;19916;-75
2023/09/20 08:11:37;;;;;;;;;;;;;;;;;;5062730;28;19909;-74
2023/09/20 08:14:04;;;;;;;;;;;;;;;;;;5064090;28;20590;-74
2023/09/20 08:16:32;;;;;;;;;;;;;;;;;;5063484;28;19912;-74
2023/09/20 08:21:32;;;;;;;;;;;;;;;;;;5075467;28;19913;-80
2023/09/20 09:00:49;;;;;;;;;;;;;;;;;;5130595;28;20060;-70
2023/09/20 09:03:15;;;;;;;;;;;;;;;;;;5129615;28;19915;-72
2023/09/20 09:05:41;;;;;;;;;;;;;;;;;;5109555;28;19960;-70
2023/09/20 09:08:07;;;;;;;;;;;;;;;;;;5127508;28;19916;-71
2023/09/20 09:10:34;;;;;;;;;;;;;;;;;;5128648;28;19916;-71
2023/09/20 09:13:00;;;;;;;;;;;;;;;;;;5128299;28;19912;-72
2023/09/20 09:15:27;;;;;;;;;;;;;;;;;;5124599;28;19912;-73
2023/09/20 09:17:53;;;;;;;;;;;;;;;;;;5127892;28;19916;-71
2023/09/20 09:20:19;;;;;;;;;;;;;;;;;;5124386;28;19919;-71
2023/09/20 09:22:45;;;;;;;;;;;;;;;;;;5124479;28;20004;-72
2023/09/20 09:25:11;;;;;;;;;;;;;;;;;;5124295;28;20375;-70
2023/09/20 09:27:38;;;;;;;;;;;;;;;;;;5121865;28;19920;-69
2023/09/20 09:30:05;;;;;;;;;;;;;;;;;;5100395;28;19916;-72
2023/09/20 09:32:31;;;;;;;;;;;;;;;;;;5122370;28;20359;-68
2023/09/20 09:34:57;;;;;;;;;;;;;;;;;;5123239;28;19920;-71
2023/09/20 09:37:23;;;;;;;;;;;;;;;;;;5124079;28;19918;-70
2023/09/20 09:40:42;;;;;;;;;;;;;;;;;;4770335;28;7626693;-71
2023/09/20 09:43:09;;;;;;;;;;;;;;;;;;5026278;28;20285;-72
2023/09/20 09:45:36;;;;;;;;;;;;;;;;;;5042648;28;19913;-72
2023/09/20 09:48:05;;;;;;;;;;;;;;;;;;5043060;28;19967;-72
2023/09/20 09:50:31;;;;;;;;;;;;;;;;;;5060813;28;19921;-71
2023/09/20 09:52:57;;;;;;;;;;;;;;;;;;5046735;28;19959;-71
2023/09/20 09:55:23;;;;;;;;;;;;;;;;;;5046544;28;19921;-70
2023/09/20 09:57:49;;;;;;;;;;;;;;;;;;5046768;28;20290;-70
2023/09/20 10:00:16;;;;;;;;;;;;;;;;;;5047118;28;20499;-72
2023/09/20 10:02:42;;;;;;;;;;;;;;;;;;5052822;28;19978;-72
2023/09/20 10:05:10;;;;;;;;;;;;;;;;;;5044986;28;20369;-72
2023/09/20 10:07:37;;;;;;;;;;;;;;;;;;5040154;28;20040;-73
2023/09/20 10:10:13;;;;;;;;;;;;;;;;;;5046610;28;19913;-72
2023/09/20 10:12:44;;;;;;;;;;;;;;;;;;5026248;28;19966;-70
2023/09/20 10:15:11;;;;;;;;;;;;;;;;;;5037222;28;20274;-70
2023/09/20 10:17:37;;;;;;;;;;;;;;;;;;5054908;28;19913;-69
2023/09/20 10:20:04;;;;;;;;;;;;;;;;;;5047083;28;20012;-69
2023/09/20 10:22:31;;;;;;;;;;;;;;;;;;5042050;28;19924;-69
2023/09/20 10:25:01;;;;;;;;;;;;;;;;;;5028825;28;19924;-68
2023/09/20 10:27:30;;;;;;;;;;;;;;;;;;5026815;28;19913;-72
2023/09/20 10:29:58;;;;;;;;;;;;;;;;;;5027200;28;19920;-70
2023/09/20 10:32:26;;;;;;;;;;;;;;;;;;5040896;28;19999;-72
2023/09/20 10:34:52;;;;;;;;;;;;;;;;;;5043915;28;19921;-73
2023/09/20 10:37:18;;;;;;;;;;;;;;;;;;5044627;28;20258;-75
2023/09/20 10:39:46;;;;;;;;;;;;;;;;;;5042672;28;20289;-74
2023/09/20 10:42:13;;;;;;;;;;;;;;;;;;5051068;28;20321;-74
2023/09/20 10:44:41;;;;;;;;;;;;;;;;;;5031942;28;19921;-75
2023/09/20 10:47:08;;;;;;;;;;;;;;;;;;5059323;28;19965;-74
2023/09/20 10:49:34;;;;;;;;;;;;;;;;;;5056895;28;20452;-74
2023/09/20 10:52:03;;;;;;;;;;;;;;;;;;5030586;28;20028;-74
2023/09/20 10:54:36;;;;;;;;;;;;;;;;;;5026328;28;19922;-75
2023/09/20 10:57:07;;;;;;;;;;;;;;;;;;5032308;28;19913;-74
2023/09/20 10:59:34;;;;;;;;;;;;;;;;;;5030213;28;19921;-74
2023/09/20 11:02:00;;;;;;;;;;;;;;;;;;5030858;28;20593;-74
2023/09/20 11:04:26;;;;;;;;;;;;;;;;;;5031046;28;20028;-74
2023/09/20 11:06:52;;;;;;;;;;;;;;;;;;5030657;28;19920;-75
2023/09/20 11:09:20;;;;;;;;;;;;;;;;;;5015453;28;20274;-74
2023/09/20 11:11:46;;;;;;;;;;;;;;;;;;5031838;28;20360;-74
2023/09/20 11:14:14;;;;;;;;;;;;;;;;;;5030669;28;19913;-74
2023/09/20 11:16:43;;;;;;;;;;;;;;;;;;5015256;28;19909;-74
2023/09/20 11:19:10;;;;;;;;;;;;;;;;;;5033515;28;19962;-74
2023/09/20 11:21:36;;;;;;;;;;;;;;;;;;5033002;28;19909;-74
2023/09/20 11:24:03;;;;;;;;;;;;;;;;;;5033262;28;19936;-74
2023/09/20 11:26:29;;;;;;;;;;;;;;;;;;5032958;28;19925;-74
2023/09/20 11:28:55;;;;;;;;;;;;;;;;;;5032144;28;19915;-74
2023/09/20 11:31:20;;;;;;;;;;;;;;;;;;5032355;28;20580;-68
2023/09/20 11:33:47;;;;;;;;;;;;;;;;;;5032193;28;19913;-71
2023/09/20 11:36:14;;;;;;;;;;;;;;;;;;5028112;28;19959;-71
2023/09/20 11:38:40;;;;;;;;;;;;;;;;;;5031201;28;20348;-70
2023/09/20 11:41:09;;;;;;;;;;;;;;;;;;5031295;28;19913;-70
2023/09/20 11:43:35;;;;;;;;;;;;;;;;;;5031872;28;20030;-71
2023/09/20 11:46:01;;;;;;;;;;;;;;;;;;5032714;28;20003;-72
2023/09/20 11:48:27;;;;;;;;;;;;;;;;;;5032304;28;19916;-71
2023/09/20 11:50:53;;;;;;;;;;;;;;;;;;5032914;28;20055;-70
2023/09/20 11:53:19;;;;;;;;;;;;;;;;;;5031667;28;20000;-70
2023/09/20 11:55:45;;;;;;;;;;;;;;;;;;5031938;28;19935;-72
2023/09/20 11:58:14;;;;;;;;;;;;;;;;;;5034967;28;20453;-71
2023/09/20 12:00:40;;;;;;;;;;;;;;;;;;5031683;28;20025;-70
2023/09/20 12:03:07;;;;;;;;;;;;;;;;;;5029583;28;20010;-71
2023/09/20 12:05:33;;;;;;;;;;;;;;;;;;5031638;28;20012;-70
2023/09/20 12:07:59;;;;;;;;;;;;;;;;;;5040172;28;20028;-70
2023/09/20 12:10:25;;;;;;;;;;;;;;;;;;5028347;28;19920;-71
2023/09/20 12:12:51;;;;;;;;;;;;;;;;;;5032946;28;19917;-71
2023/09/20 12:15:17;;;;;;;;;;;;;;;;;;5034903;28;19948;-70
2023/09/20 12:17:43;;;;;;;;;;;;;;;;;;5033866;28;19913;-71
2023/09/20 12:20:11;;;;;;;;;;;;;;;;;;5031895;28;19971;-71
2023/09/20 12:22:38;;;;;;;;;;;;;;;;;;5031775;28;20382;-69
2023/09/20 12:25:06;;;;;;;;;;;;;;;;;;5029280;28;19920;-70
2023/09/20 12:27:35;;;;;;;;;;;;;;;;;;5030481;28;19937;-69
2023/09/20 12:30:06;;;;;;;;;;;;;;;;;;5029846;28;19936;-71
2023/09/20 12:32:32;;;;;;;;;;;;;;;;;;5030133;28;19917;-70
2023/09/20 12:34:58;;;;;;;;;;;;;;;;;;5030351;28;19909;-71
2023/09/20 12:37:23;;;;;;;;;;;;;;;;;;5030487;28;19909;-71
2023/09/20 12:39:52;;;;;;;;;;;;;;;;;;5033437;28;20015;-71
2023/09/20 12:42:19;;;;;;;;;;;;;;;;;;5033755;28;20227;-73
2023/09/20 12:44:45;;;;;;;;;;;;;;;;;;5031583;28;19909;-71
2023/09/20 12:47:11;;;;;;;;;;;;;;;;;;5031832;28;20490;-72
2023/09/20 12:49:47;;;;;;;;;;;;;;;;;;5031665;28;20345;-71
2023/09/20 12:52:13;;;;;;;;;;;;;;;;;;5033664;28;19917;-76
2023/09/20 12:54:39;;;;;;;;;;;;;;;;;;5034242;28;19912;-76
2023/09/20 12:57:05;;;;;;;;;;;;;;;;;;5034281;28;20301;-75
2023/09/20 12:59:31;;;;;;;;;;;;;;;;;;5033814;28;19917;-76
2023/09/20 13:02:00;;;;;;;;;;;;;;;;;;5034257;28;19909;-76
2023/09/20 13:04:27;;;;;;;;;;;;;;;;;;5034447;28;19909;-75
2023/09/20 13:06:53;;;;;;;;;;;;;;;;;;5033536;28;19947;-75
2023/09/20 13:09:19;;;;;;;;;;;;;;;;;;5034155;28;19913;-76
2023/09/20 13:11:46;;;;;;;;;;;;;;;;;;5034090;28;19910;-75
2023/09/20 13:14:12;;;;;;;;;;;;;;;;;;5033365;28;19956;-75
2023/09/20 13:16:40;;;;;;;;;;;;;;;;;;5034020;28;19963;-76
2023/09/20 13:19:08;;;;;;;;;;;;;;;;;;5033914;28;19996;-76
2023/09/20 13:21:34;;;;;;;;;;;;;;;;;;5033566;28;20318;-76
2023/09/20 13:24:01;;;;;;;;;;;;;;;;;;5033977;28;19916;-76
2023/09/20 13:26:27;;;;;;;;;;;;;;;;;;5033904;28;20313;-75
2023/09/20 13:28:53;;;;;;;;;;;;;;;;;;5033550;28;19909;-76
2023/09/20 13:31:19;;;;;;;;;;;;;;;;;;5033788;28;19916;-76
2023/09/20 13:33:45;;;;;;;;;;;;;;;;;;5034425;28;19996;-76
2023/09/20 13:36:11;;;;;;;;;;;;;;;;;;5033217;28;20376;-76
2023/09/20 13:38:37;;;;;;;;;;;;;;;;;;5033417;28;19932;-76
2023/09/20 13:41:03;;;;;;;;;;;;;;;;;;5033462;28;20405;-76
2023/09/20 13:43:30;;;;;;;;;;;;;;;;;;5033904;28;20362;-76
2023/09/20 13:45:56;;;;;;;;;;;;;;;;;;5033695;28;20269;-76
2023/09/20 13:48:23;;;;;;;;;;;;;;;;;;5033288;28;20003;-76
2023/09/20 13:50:49;;;;;;;;;;;;;;;;;;5033773;28;19913;-76
2023/09/20 13:53:15;;;;;;;;;;;;;;;;;;5033624;28;19909;-76
2023/09/20 13:55:41;;;;;;;;;;;;;;;;;;5033315;28;19963;-76
2023/09/20 13:58:07;;;;;;;;;;;;;;;;;;5033816;28;19909;-74
2023/09/20 14:00:33;;;;;;;;;;;;;;;;;;5033373;28;19917;-76
2023/09/20 14:03:02;;;;;;;;;;;;;;;;;;5033146;28;19909;-74
2023/09/20 14:05:28;;;;;;;;;;;;;;;;;;5033457;28;19995;-76
2023/09/20 14:07:57;;;;;;;;;;;;;;;;;;5033408;28;19955;-76
2023/09/20 14:10:23;;;;;;;;;;;;;;;;;;5033272;28;20361;-76
2023/09/20 14:12:49;;;;;;;;;;;;;;;;;;5033695;28;19910;-76
2023/09/20 14:15:15;;;;;;;;;;;;;;;;;;5033416;28;19909;-76
2023/09/20 14:17:42;;;;;;;;;;;;;;;;;;5033055;28;19963;-76
2023/09/20 14:20:09;;;;;;;;;;;;;;;;;;5033267;28;19918;-76
2023/09/20 14:22:35;;;;;;;;;;;;;;;;;;5033401;28;19909;-76
2023/09/20 14:25:01;;;;;;;;;;;;;;;;;;5032874;28;19915;-76
2023/09/20 14:27:27;;;;;;;;;;;;;;;;;;5036943;28;19909;-76
2023/09/20 14:29:53;;;;;;;;;;;;;;;;;;5037081;28;19909;-76
2023/09/20 14:32:20;;;;;;;;;;;;;;;;;;5036422;28;19909;-76
2023/09/20 14:34:46;;;;;;;;;;;;;;;;;;5036864;28;20369;-76
2023/09/20 14:37:12;;;;;;;;;;;;;;;;;;5036491;28;19913;-76
2023/09/20 14:39:38;;;;;;;;;;;;;;;;;;5036529;28;19947;-76
2023/09/20 14:42:04;;;;;;;;;;;;;;;;;;5037097;28;20024;-74
2023/09/20 14:44:30;;;;;;;;;;;;;;;;;;5036321;28;20285;-75
2023/09/20 14:47:00;;;;;;;;;;;;;;;;;;5036678;28;19909;-75
2023/09/20 14:49:26;;;;;;;;;;;;;;;;;;5036710;28;19917;-75
2023/09/20 14:51:53;;;;;;;;;;;;;;;;;;5036505;28;20285;-75
2023/09/20 14:54:20;;;;;;;;;;;;;;;;;;5036625;28;20120;-75
2023/09/20 14:56:46;;;;;;;;;;;;;;;;;;5036527;28;19909;-75
2023/09/20 14:59:12;;;;;;;;;;;;;;;;;;5035923;28;19970;-75
2023/09/20 15:01:39;;;;;;;;;;;;;;;;;;5036483;28;19955;-75
2023/09/20 15:04:06;;;;;;;;;;;;;;;;;;5036328;28;19932;-75
2023/09/20 15:06:32;;;;;;;;;;;;;;;;;;5036232;28;19909;-75
2023/09/20 15:08:58;;;;;;;;;;;;;;;;;;5036557;28;19916;-75
2023/09/20 15:11:24;;;;;;;;;;;;;;;;;;5036202;28;19909;-75
2023/09/20 15:13:53;;;;;;;;;;;;;;;;;;5035687;28;19913;-75
2023/09/20 15:16:19;;;;;;;;;;;;;;;;;;5036006;28;19971;-75
2023/09/20 15:18:45;;;;;;;;;;;;;;;;;;5036142;28;19913;-75
2023/09/20 15:21:11;;;;;;;;;;;;;;;;;;5035790;28;19917;-76
2023/09/20 15:23:37;;;;;;;;;;;;;;;;;;5035930;28;19909;-76
2023/09/20 15:26:03;;;;;;;;;;;;;;;;;;5036125;28;19962;-76
2023/09/20 15:28:28;;;;;;;;;;;;;;;;;;5035851;28;19920;-75
2023/09/20 15:30:57;;;;;;;;;;;;;;;;;;5035884;28;19909;-75
2023/09/20 15:33:24;;;;;;;;;;;;;;;;;;5035589;28;20350;-74
2023/09/20 15:35:51;;;;;;;;;;;;;;;;;;5035819;28;19940;-75
2023/09/20 15:38:18;;;;;;;;;;;;;;;;;;5035801;28;19963;-77
2023/09/20 15:40:44;;;;;;;;;;;;;;;;;;5035287;28;19925;-75
2023/09/20 15:43:10;;;;;;;;;;;;;;;;;;5035882;28;19996;-75
2023/09/20 15:45:36;;;;;;;;;;;;;;;;;;5035638;28;19914;-75
2023/09/20 15:48:02;;;;;;;;;;;;;;;;;;5035414;28;19967;-75
2023/09/20 15:50:33;;;;;;;;;;;;;;;;;;5035645;28;19916;-75
2023/09/20 15:52:59;;;;;;;;;;;;;;;;;;5035508;28;19909;-75
2023/09/20 15:55:25;;;;;;;;;;;;;;;;;;5035141;28;19916;-75
2023/09/20 15:57:51;;;;;;;;;;;;;;;;;;5035412;28;19978;-75
2023/09/20 16:00:17;;;;;;;;;;;;;;;;;;5035314;28;20075;-75
2023/09/20 16:02:43;;;;;;;;;;;;;;;;;;5034946;28;19909;-75
2023/09/20 16:05:09;;;;;;;;;;;;;;;;;;5035248;28;20070;-75
2023/09/20 16:07:35;;;;;;;;;;;;;;;;;;5035257;28;19990;-75
2023/09/20 16:10:02;;;;;;;;;;;;;;;;;;5034843;28;20439;-75
2023/09/20 16:12:28;;;;;;;;;;;;;;;;;;5035268;28;19913;-75
2023/09/20 16:14:54;;;;;;;;;;;;;;;;;;5035001;28;20348;-75
2023/09/20 16:17:20;;;;;;;;;;;;;;;;;;5034656;28;19956;-75
2023/09/20 16:19:46;;;;;;;;;;;;;;;;;;5035188;28;20420;-74
2023/09/20 16:22:13;;;;;;;;;;;;;;;;;;5034984;28;19920;-75
2023/09/20 16:24:40;;;;;;;;;;;;;;;;;;5034574;28;19948;-75
2023/09/20 16:27:06;;;;;;;;;;;;;;;;;;5034841;28;19917;-74
2023/09/20 16:29:32;;;;;;;;;;;;;;;;;;5034856;28;20285;-74
2023/09/20 16:31:58;;;;;;;;;;;;;;;;;;5034374;28;19909;-75
2023/09/20 16:34:27;;;;;;;;;;;;;;;;;;5034919;28;19909;-75
2023/09/20 16:36:53;;;;;;;;;;;;;;;;;;5034478;28;20276;-75
2023/09/20 16:39:19;;;;;;;;;;;;;;;;;;5034437;28;20354;-75
2023/09/20 16:41:45;;;;;;;;;;;;;;;;;;5034601;28;19909;-75
2023/09/20 16:44:11;;;;;;;;;;;;;;;;;;5034113;28;19956;-75
2023/09/20 16:48:57;;;;;;;;;;;;;;;;;;5111922;27;19916;-74
2023/09/20 16:51:23;;;;;;;;;;;;;;;;;;5111352;28;20002;-75
2023/09/20 16:53:49;;;;;;;;;;;;;;;;;;5111645;28;19962;-75
2023/09/20 16:56:15;;;;;;;;;;;;;;;;;;5111550;28;20006;-75
2023/09/20 16:58:41;;;;;;;;;;;;;;;;;;5110971;28;19954;-75
2023/09/20 17:01:08;;;;;;;;;;;;;;;;;;5111522;28;19908;-75
2023/09/20 17:06:07;;;;;;;;;;;;;;;;;;5152483;27;20100;-75
2023/09/20 17:08:33;;;;;;;;;;;;;;;;;;5152816;27;19911;-75
2023/09/20 17:10:59;;;;;;;;;;;;;;;;;;5153118;27;19914;-75
2023/09/20 17:13:26;;;;;;;;;;;;;;;;;;5152292;27;20010;-74
2023/09/20 17:18:17;;;;;;;;;;;;;;;;;;5111608;27;19916;-73
2023/09/20 17:20:43;;;;;;;;;;;;;;;;;;5111314;28;20011;-74
2023/09/20 17:23:10;;;;;;;;;;;;;;;;;;5111553;28;19908;-73
2023/09/20 17:25:35;;;;;;;;;;;;;;;;;;5111603;28;19912;-73
2023/09/20 17:28:03;;;;;;;;;;;;;;;;;;5111177;28;20441;-73
2023/09/20 17:30:29;;;;;;;;;;;;;;;;;;5111463;28;19908;-74
2023/09/20 17:32:55;;;;;;;;;;;;;;;;;;5111477;28;20061;-74
2023/09/20 17:35:21;;;;;;;;;;;;;;;;;;5111044;28;20382;-73
2023/09/20 17:37:47;;;;;;;;;;;;;;;;;;5111189;28;19920;-73
2023/09/20 17:40:16;;;;;;;;;;;;;;;;;;5110862;28;19915;-73
2023/09/20 17:42:43;;;;;;;;;;;;;;;;;;5111320;28;19908;-73
2023/09/20 17:45:11;;;;;;;;;;;;;;;;;;5111329;28;19908;-74
2023/09/20 17:47:39;;;;;;;;;;;;;;;;;;5110815;28;20388;-74
2023/09/20 17:50:06;;;;;;;;;;;;;;;;;;5111225;28;19916;-74
2023/09/20 17:52:32;;;;;;;;;;;;;;;;;;5110951;28;19908;-74
2023/09/20 17:54:59;;;;;;;;;;;;;;;;;;5110513;28;19934;-74
2023/09/20 17:59:23;;;;;;;;;;;;;;;;;;5071189;28;19916;-74
2023/09/20 18:01:49;;;;;;;;;;;;;;;;;;5070742;28;19913;-74
2023/09/20 18:04:15;;;;;;;;;;;;;;;;;;5070956;28;19908;-74
2023/09/20 18:06:41;;;;;;;;;;;;;;;;;;5071001;28;20011;-74
2023/09/20 18:09:13;;;;;;;;;;;;;;;;;;5070448;28;19916;-73
2023/09/20 18:14:32;;;;;;;;;;;;;;;;;;5091424;27;19918;-74
2023/09/20 18:16:58;;;;;;;;;;;;;;;;;;5091101;28;19994;-74
2023/09/20 18:19:26;;;;;;;;;;;;;;;;;;5091410;28;19908;-74
2023/09/20 18:21:53;;;;;;;;;;;;;;;;;;5091343;28;20264;-74
2023/09/20 18:26:22;;;;;;;;;;;;;;;;;;5071409;28;19916;-74
2023/09/20 18:28:51;;;;;;;;;;;;;;;;;;5071198;28;19967;-75
2023/09/20 18:34:59;;;;;;;;;;;;;;;;;;5112158;27;20372;-74
2023/09/20 18:37:26;;;;;;;;;;;;;;;;;;5111347;28;19918;-74
2023/09/20 18:39:52;;;;;;;;;;;;;;;;;;5112247;28;19908;-74
2023/09/20 18:42:19;;;;;;;;;;;;;;;;;;5111524;28;19912;-74
2023/09/20 18:44:45;;;;;;;;;;;;;;;;;;5111139;28;20384;-74
2023/09/20 18:47:12;;;;;;;;;;;;;;;;;;5111296;28;19969;-74
2023/09/20 18:49:38;;;;;;;;;;;;;;;;;;5111405;28;19908;-74
2023/09/20 18:52:08;;;;;;;;;;;;;;;;;;5111113;28;20326;-75
2023/09/20 18:54:35;;;;;;;;;;;;;;;;;;5111850;28;19916;-75
2023/09/20 18:57:01;;;;;;;;;;;;;;;;;;5111314;28;20280;-75
2023/09/20 18:59:27;;;;;;;;;;;;;;;;;;5111009;28;19908;-75
2023/09/20 19:01:54;;;;;;;;;;;;;;;;;;5111253;28;19909;-75
2023/09/20 19:06:36;;;;;;;;;;;;;;;;;;5091049;27;20348;-73
2023/09/20 19:09:03;;;;;;;;;;;;;;;;;;5091393;28;19913;-73
2023/09/20 19:12:08;;;;;;;;;;;;;;;;;;5091053;27;19958;-73
2023/09/20 19:14:34;;;;;;;;;;;;;;;;;;5091265;28;19923;-73
2023/09/20 19:17:32;;;;;;;;;;;;;;;;;;5173756;27;19915;-73
2023/09/20 19:19:58;;;;;;;;;;;;;;;;;;5173361;27;20282;-73
2023/09/20 19:22:24;;;;;;;;;;;;;;;;;;5173660;27;20355;-74
2023/09/20 19:24:52;;;;;;;;;;;;;;;;;;5173715;27;19907;-74
2023/09/20 19:27:22;;;;;;;;;;;;;;;;;;5173243;27;19914;-73
2023/09/20 19:33:16;;;;;;;;;;;;;;;;;;5111349;27;20298;-75
2023/09/20 19:35:42;;;;;;;;;;;;;;;;;;5108612;28;20352;-76
2023/09/20 19:38:11;;;;;;;;;;;;;;;;;;5111514;28;19915;-75
2023/09/20 19:42:03;;;;;;;;;;;;;;;;;;5091471;27;19934;-74
2023/09/20 19:44:29;;;;;;;;;;;;;;;;;;5091591;28;20359;-75
2023/09/20 19:46:55;;;;;;;;;;;;;;;;;;5090877;28;19912;-75
2023/09/20 19:49:21;;;;;;;;;;;;;;;;;;5091283;28;20282;-75
2023/09/20 19:51:47;;;;;;;;;;;;;;;;;;5090050;28;19970;-75